Time;durP1;ratioP1;P1;durP2;ratioP2;P2;SDS_P1;SDS_P2;PMS_P1;PMS_P2;Temp;Humidity;BMP_temperature;BMP_pressure;BME280_temperature;BME280_humidity;BME280_pressure;Samples;Min_cycle;Max_cycle;Signal;HPM_P1;HPM_P2
2022/05/10 00:01:37;;;;;;;10.80;2.90;;;9.20;99.90;;;7.91;90.15;101960.88;4942048;28;20610;-77
2022/05/10 00:04:07;;;;;;;6.80;2.70;;;9.20;99.90;;;7.90;89.40;101956.50;4936076;28;20027;-76
2022/05/10 00:06:40;;;;;;;8.77;3.00;;;9.20;99.90;;;7.91;89.17;101958.25;4894363;28;20018;-77
2022/05/10 00:09:08;;;;;;;9.60;3.00;;;9.20;99.90;;;7.94;88.92;101955.56;4912754;28;20081;-76
2022/05/10 00:11:34;;;;;;;6.43;2.67;;;9.20;99.90;;;7.90;89.38;101959.13;4922930;28;20023;-76
2022/05/10 00:13:59;;;;;;;7.00;2.95;;;9.20;99.90;;;7.84;89.59;101958.38;4947508;28;20030;-76
2022/05/10 00:16:25;;;;;;;8.38;2.88;;;9.20;99.90;;;7.79;88.67;101958.44;4947170;28;20762;-77
2022/05/10 00:18:51;;;;;;;7.75;2.63;;;9.10;99.90;;;7.80;88.71;101947.09;4923164;28;20121;-77
2022/05/10 00:21:23;;;;;;;6.70;2.88;;;9.10;99.90;;;7.73;88.12;101950.66;4916860;28;20884;-76
2022/05/10 00:23:52;;;;;;;6.95;2.45;;;9.00;99.90;;;7.59;89.09;101943.88;4928422;28;20027;-77
2022/05/10 00:26:18;;;;;;;8.05;3.08;;;8.90;99.90;;;7.52;89.76;101952.72;4940002;28;20448;-76
2022/05/10 00:28:44;;;;;;;14.82;3.03;;;8.90;99.90;;;7.46;89.77;101949.34;4944373;28;20038;-77
2022/05/10 00:31:11;;;;;;;7.40;3.25;;;8.80;99.90;;;7.40;89.84;101948.50;4943905;28;20043;-76
2022/05/10 00:33:37;;;;;;;5.55;3.00;;;8.80;99.90;;;7.37;89.68;101939.84;4917093;28;20022;-76
2022/05/10 00:36:04;;;;;;;8.50;3.50;;;8.70;99.90;;;7.27;90.21;101936.47;4934909;28;20376;-76
2022/05/10 00:38:36;;;;;;;9.82;2.92;;;8.60;99.90;;;7.26;89.92;101933.91;4941856;28;20042;-76
2022/05/10 00:41:14;;;;;;;11.88;2.80;;;8.60;99.90;;;7.25;90.07;101933.00;4933616;28;20822;-76
2022/05/10 00:43:46;;;;;;;8.13;2.88;;;8.60;99.90;;;7.25;89.97;101933.00;4958231;28;20085;-76
2022/05/10 00:46:26;;;;;;;6.60;2.65;;;8.60;99.90;;;7.23;90.03;101933.91;4941676;28;20063;-76
2022/05/10 00:49:47;;;;;;;7.20;2.75;;;8.60;99.90;;;7.23;89.98;101929.53;4934640;28;20045;-77
2022/05/10 00:52:57;;;;;;;7.70;2.95;;;8.50;99.90;;;7.21;90.13;101930.44;4883559;28;20569;-76
2022/05/10 00:56:01;;;;;;;5.38;3.00;;;8.50;99.90;;;7.16;90.11;101922.66;4944836;28;20438;-77
2022/05/10 00:58:43;;;;;;;5.60;3.08;;;8.50;99.90;;;7.13;90.45;101927.94;4934647;28;21048;-76
2022/05/10 01:01:19;;;;;;;5.80;2.97;;;8.40;99.90;;;7.09;90.19;101924.50;4947623;28;20126;-77
2022/05/10 01:04:09;;;;;;;12.20;3.50;;;8.40;99.90;;;7.04;90.47;101915.84;4912466;28;20034;-76
2022/05/10 01:06:49;;;;;;;7.35;3.00;;;8.40;99.90;;;7.01;90.57;101908.00;4951941;28;20514;-77
2022/05/10 01:09:45;;;;;;;7.95;3.30;;;8.30;99.90;;;6.98;90.38;101908.06;4916595;28;20039;-77
2022/05/10 01:12:29;;;;;;;6.80;2.88;;;8.70;99.90;;;6.93;90.66;101895.03;4940101;28;20027;-76
2022/05/10 01:15:20;;;;;;;8.07;3.17;;;8.30;99.90;;;6.91;90.31;101888.94;4951498;28;20034;-76
2022/05/10 01:17:47;;;;;;;6.68;3.10;;;8.20;99.90;;;6.88;90.76;101894.19;4920713;28;20019;-76
2022/05/10 01:20:19;;;;;;;7.18;3.25;;;8.20;99.90;;;6.86;90.60;101902.97;4946348;28;20050;-77
2022/05/10 01:23:27;;;;;;;8.32;2.90;;;8.20;99.90;;;6.84;90.64;101889.03;4932004;28;22317;-77
2022/05/10 01:26:13;;;;;;;9.30;3.28;;;8.20;99.90;;;6.85;90.33;101885.53;4926077;28;20030;-77
2022/05/10 01:28:50;;;;;;;20.17;3.03;;;8.20;99.90;;;6.80;90.15;101882.94;4942480;28;20049;-77
2022/05/10 01:31:29;;;;;;;8.50;2.97;;;8.10;99.90;;;6.81;89.99;101886.47;4940356;28;20387;-77
2022/05/10 01:34:04;;;;;;;7.70;3.08;;;8.10;99.90;;;6.81;89.83;101876.00;4927840;28;20031;-77
2022/05/10 01:36:52;;;;;;;7.40;3.20;;;8.10;99.90;;;6.73;89.91;101869.06;4944197;28;20026;-77
2022/05/10 01:39:47;;;;;;;9.65;3.55;;;8.10;99.90;;;6.73;89.94;101870.84;4948126;28;20111;-77
2022/05/10 01:42:45;;;;;;;10.07;3.28;;;8.00;99.90;;;6.66;90.04;101874.44;4932130;28;20082;-76
2022/05/10 01:45:15;;;;;;;;;;;8.00;99.90;;;6.46;90.43;101866.81;4947133;28;20089;-77
2022/05/10 01:47:53;;;;;;;11.05;3.55;;;7.90;99.90;;;6.41;90.89;101869.44;4931924;28;19910;-77
2022/05/10 01:50:32;;;;;;;10.48;3.70;;;7.80;99.90;;;6.41;91.05;101868.59;4952853;28;20042;-77
2022/05/10 01:53:17;;;;;;;8.05;3.13;;;7.80;99.90;;;6.37;91.26;101865.13;4947987;28;20014;-77
2022/05/10 01:55:54;;;;;;;6.88;3.38;;;7.80;99.90;;;6.31;91.25;101858.25;4941610;28;20545;-77
2022/05/10 01:58:26;;;;;;;3.92;3.00;;;7.70;99.90;;;6.30;91.62;101860.88;4956405;28;20048;-77
2022/05/10 02:01:04;;;;;;;14.80;3.13;;;7.60;99.90;;;6.23;91.66;101851.34;4951131;28;20430;-76
2022/05/10 02:03:43;;;;;;;9.98;3.22;;;7.60;99.90;;;6.22;91.98;101852.22;4947092;28;20121;-77
2022/05/10 02:06:51;;;;;;;7.40;3.60;;;7.60;99.90;;;6.18;91.54;101846.19;4931275;28;20415;-77
2022/05/10 02:09:48;;;;;;;6.40;3.22;;;7.50;99.90;;;6.15;91.49;101843.56;4930348;28;20034;-76
2022/05/10 02:12:35;;;;;;;8.85;3.70;;;7.50;99.90;;;6.11;91.84;101839.25;4939649;28;20022;-76
2022/05/10 02:15:24;;;;;;;7.97;3.30;;;7.50;99.90;;;6.07;91.48;101833.22;4944137;28;20042;-76
2022/05/10 02:18:30;;;;;;;7.90;3.72;;;7.50;99.90;;;6.08;91.54;101829.69;4957315;28;20069;-77
2022/05/10 02:21:13;;;;;;;9.38;3.70;;;7.50;99.90;;;6.07;91.56;101824.47;4929461;28;20056;-77
2022/05/10 02:23:50;;;;;;;14.52;4.22;;;7.40;99.90;;;6.06;91.90;101822.75;4950036;28;20122;-76
2022/05/10 02:26:24;;;;;;;6.90;3.28;;;7.40;99.90;;;6.11;91.57;101824.47;4941409;28;20038;-77
2022/05/10 02:29:19;;;;;;;8.20;3.65;;;7.50;99.90;;;6.15;91.47;101818.31;4924615;28;20039;-77
2022/05/10 02:35:01;;;;;;;11.25;3.80;;;7.50;99.90;;;6.14;91.13;101800.03;4954168;28;20141;-77
2022/05/10 02:37:30;;;;;;;7.90;3.88;;;7.50;99.90;;;6.13;90.62;101806.13;4928119;28;20031;-77
2022/05/10 02:39:56;;;;;;;9.65;3.90;;;7.50;99.90;;;6.09;91.01;101812.25;4934979;28;21495;-77
2022/05/10 02:42:23;;;;;;;9.70;3.80;;;7.50;99.90;;;6.20;90.46;101802.56;4940176;28;21123;-76
2022/05/10 02:44:54;;;;;;;10.02;3.50;;;7.50;99.90;;;6.19;90.19;101798.19;4950375;28;20027;-77
2022/05/10 02:47:36;;;;;;;6.28;3.53;;;7.60;99.90;;;6.19;90.01;101800.81;4956883;28;20023;-76
2022/05/10 02:50:05;;;;;;;7.55;3.67;;;7.50;99.90;;;6.18;90.15;101795.59;4945117;28;20027;-77
2022/05/10 02:52:31;;;;;;;6.85;3.65;;;7.50;99.90;;;6.20;90.42;101804.28;4964601;28;20066;-76
2022/05/10 02:55:14;;;;;;;7.80;4.03;;;7.50;99.90;;;6.15;90.46;101801.72;4934794;23;20503;-77
2022/05/10 02:57:46;;;;;;;11.13;3.50;;;7.50;99.90;;;6.12;90.48;101794.78;4902261;28;20035;-76
2022/05/10 03:00:13;;;;;;;8.50;3.78;;;7.50;99.90;;;6.15;90.14;101796.50;4908525;28;20039;-77
2022/05/10 03:02:45;;;;;;;10.40;3.60;;;7.50;99.90;;;6.15;90.25;101794.78;4923771;28;20028;-76
2022/05/10 03:05:13;;;;;;;11.68;4.35;;;7.50;99.90;;;6.10;90.20;101795.69;4908689;28;20020;-76
2022/05/10 03:07:39;;;;;;;12.85;3.85;;;7.40;99.90;;;6.05;90.35;101789.66;4916098;28;20027;-77
2022/05/10 03:10:07;;;;;;;9.75;3.75;;;7.40;99.90;;;6.01;90.55;101790.59;4887350;28;20225;-76
2022/05/10 03:12:33;;;;;;;8.10;3.85;;;7.40;99.90;;;6.00;90.80;101791.44;4904319;28;20034;-76
2022/05/10 03:14:58;;;;;;;15.68;4.28;;;7.40;99.90;;;5.91;90.68;101787.16;4917662;28;20031;-76
2022/05/10 03:17:25;;;;;;;8.63;4.25;;;7.30;99.90;;;5.83;90.85;101787.25;4930999;28;20397;-76
2022/05/10 03:19:51;;;;;;;19.73;4.15;;;7.20;99.90;;;5.76;90.94;101785.53;4915321;28;20795;-76
2022/05/10 03:22:17;;;;;;;7.78;3.78;;;7.20;99.90;;;5.76;91.49;101785.53;4862872;28;20039;-77
2022/05/10 03:24:43;;;;;;;13.27;4.25;;;7.20;99.90;;;5.74;91.32;101774.25;4897656;28;20497;-77
2022/05/10 03:27:11;;;;;;;12.65;3.70;;;7.20;99.90;;;5.75;91.46;101784.69;4895081;28;20066;-76
2022/05/10 03:29:39;;;;;;;8.00;3.83;;;7.10;99.90;;;5.78;91.47;101773.34;4909608;28;20030;-76
2022/05/10 03:32:08;;;;;;;9.57;3.83;;;7.20;99.90;;;5.82;91.19;101775.03;4863692;28;20085;-76
2022/05/10 03:37:18;;;;;;;12.77;3.88;;;7.20;99.90;;;5.97;90.93;101762.72;4927902;28;20034;-76
2022/05/10 03:39:44;;;;;;;13.27;3.92;;;7.30;99.90;;;6.05;90.20;101760.91;4906731;28;20449;-76
2022/05/10 03:42:10;;;;;;;8.98;3.97;;;7.30;99.90;;;6.16;89.78;101754.66;4895361;28;20067;-78
2022/05/10 03:44:38;;;;;;;8.70;3.67;;;7.50;99.90;;;6.28;89.02;101758.00;4925124;28;20107;-77
2022/05/10 03:47:07;;;;;;;10.52;3.72;;;7.60;99.90;;;6.40;88.57;101751.75;4910210;28;20126;-77
2022/05/10 03:49:33;;;;;;;9.25;3.90;;;7.70;99.90;;;6.54;87.82;101752.44;4887795;28;20082;-77
2022/05/10 03:51:59;;;;;;;10.13;3.70;;;7.80;99.90;;;6.74;86.66;101747.78;4925411;28;20059;-77
2022/05/10 03:54:25;;;;;;;10.25;3.38;;;8.00;99.90;;;6.91;85.98;101736.19;4907854;28;20568;-77
2022/05/10 03:56:51;;;;;;;9.57;3.45;;;8.20;99.90;;;7.15;84.99;101746.31;4909041;28;20044;-76
2022/05/10 03:59:21;;;;;;;14.20;4.20;;;8.40;99.90;;;7.45;82.94;101748.41;4919254;28;20033;-76
2022/05/10 04:01:47;;;;;;;7.70;3.65;;;8.60;99.90;;;7.68;81.32;101748.03;4887858;28;20119;-77
2022/05/10 04:04:14;;;;;;;8.45;3.85;;;9.00;99.90;;;8.32;80.12;101749.41;4920322;28;20047;-77
2022/05/10 04:06:40;;;;;;;13.70;3.75;;;10.30;99.90;;;9.86;75.72;101748.34;4905356;28;20108;-77
2022/05/10 04:09:06;;;;;;;8.80;3.55;;;11.60;99.90;;;11.30;69.43;101756.34;4903762;28;20114;-76
2022/05/10 04:11:31;;;;;;;7.88;3.78;;;12.80;99.90;;;12.65;63.77;101751.50;4911126;28;20845;-77
2022/05/10 04:13:57;;;;;;;16.83;4.00;;;13.90;99.90;;;13.78;59.00;101758.38;4921418;28;20511;-77
2022/05/10 04:16:25;;;;;;;8.95;3.83;;;14.90;99.90;;;14.81;55.72;101753.69;4903041;28;20058;-76
2022/05/10 04:18:51;;;;;;;9.90;3.80;;;15.20;99.90;;;14.69;54.20;101759.59;4897251;28;20512;-76
2022/05/10 04:21:17;;;;;;;8.82;4.00;;;15.00;99.90;;;14.09;54.92;101771.09;4907241;28;20116;-77
2022/05/10 04:23:42;;;;;;;13.43;3.60;;;14.60;99.90;;;13.62;56.38;101775.81;4864311;28;20405;-77
2022/05/10 04:26:13;;;;;;;6.72;3.47;;;14.10;99.90;;;13.02;57.41;101776.47;4892866;28;20106;-76
2022/05/10 04:28:40;;;;;;;7.30;3.33;;;14.40;99.90;;;14.03;55.94;101787.25;4902499;28;20033;-77
2022/05/10 04:31:06;;;;;;;7.78;3.55;;;14.40;99.90;;;13.58;55.56;101785.69;4929828;28;20575;-77
2022/05/10 04:33:32;;;;;;;9.30;3.95;;;14.70;99.90;;;14.40;55.15;101777.66;4916754;28;20028;-77
2022/05/10 04:35:58;;;;;;;7.70;3.63;;;14.40;99.90;;;13.63;55.34;101773.13;4930230;28;20119;-76
2022/05/10 04:38:24;;;;;;;9.25;3.45;;;14.20;99.90;;;13.32;56.58;101769.09;4913068;28;20039;-77
2022/05/10 04:43:38;;;;;;;8.85;3.28;;;13.80;99.90;;;13.11;57.18;101776.13;4907903;28;20110;-77
2022/05/10 04:46:04;;;;;;;8.52;3.50;;;13.70;99.90;;;12.94;57.22;101770.66;4927335;28;21054;-76
2022/05/10 04:48:29;;;;;;;5.68;3.40;;;13.70;99.90;;;13.30;57.07;101768.34;4897042;28;20027;-77
2022/05/10 04:50:55;;;;;;;8.93;3.53;;;14.10;99.90;;;14.15;55.71;101775.28;4915497;28;20098;-77
2022/05/10 04:53:21;;;;;;;8.80;3.33;;;14.70;99.90;;;15.55;52.16;101782.75;4901289;28;20574;-76
2022/05/10 04:55:49;;;;;;;11.15;3.40;;;15.30;99.90;;;16.25;50.56;101782.69;4915707;28;20674;-77
2022/05/10 04:58:15;;;;;;;10.55;3.25;;;16.20;99.50;;;17.76;47.28;101787.50;4918301;28;20101;-77
2022/05/10 05:00:41;;;;;;;31.05;3.53;;;16.80;98.00;;;17.76;46.30;101796.34;4907622;28;21565;-77
2022/05/10 05:03:07;;;;;;;6.78;2.83;;;17.20;97.40;;;18.09;45.99;101795.28;4916416;28;20035;-78
2022/05/10 05:05:33;;;;;;;17.70;3.67;;;17.40;96.70;;;18.38;44.79;101792.59;4892697;28;20038;-77
2022/05/10 05:07:59;;;;;;;15.82;3.50;;;17.90;96.50;;;19.42;43.70;101801.91;4909620;28;20067;-77
2022/05/10 05:10:25;;;;;;;5.30;3.00;;;18.80;97.10;;;21.32;40.99;101813.53;4909434;28;20448;-77
2022/05/10 05:12:51;;;;;;;9.55;3.05;;;20.00;96.30;;;22.05;39.08;101814.25;4898824;29;20036;-77
2022/05/10 05:15:18;;;;;;;11.95;3.65;;;20.40;93.50;;;21.20;39.88;101812.59;4903823;28;20106;-77
2022/05/10 05:17:44;;;;;;;10.05;3.40;;;20.50;92.80;;;20.43;40.47;101812.81;4921378;28;20033;-77
2022/05/10 05:20:11;;;;;;;7.05;3.85;;;20.20;94.00;;;19.71;42.39;101815.13;4922443;28;20055;-77
2022/05/10 05:22:37;;;;;;;5.47;3.05;;;19.40;94.20;;;18.34;45.12;101807.09;4917314;28;20047;-77
2022/05/10 05:25:04;;;;;;;12.70;3.75;;;18.80;93.50;;;17.31;46.57;101802.56;4875536;28;20101;-77
2022/05/10 05:27:33;;;;;;;6.30;3.58;;;18.50;94.80;;;18.32;46.31;101803.69;4884169;28;20090;-77
2022/05/10 05:29:59;;;;;;;6.85;3.33;;;18.60;95.00;;;19.52;44.26;101804.81;4910767;28;20040;-76
2022/05/10 05:32:34;;;;;;;14.05;3.40;;;19.20;95.50;;;20.77;41.83;101813.06;4913982;28;20032;-77
2022/05/10 05:35:00;;;;;;;7.68;3.42;;;19.70;95.10;;;20.59;41.51;101815.28;4901345;28;20044;-77
2022/05/10 05:37:35;;;;;;;11.05;3.42;;;19.70;93.60;;;19.07;43.88;101820.28;4911551;28;20103;-80
2022/05/10 05:40:13;;;;;;;11.63;3.50;;;19.50;94.60;;;18.96;44.11;101815.63;4910761;28;20035;-77
2022/05/10 05:42:39;;;;;;;10.23;3.15;;;19.10;94.90;;;18.25;46.03;101811.19;4920930;28;20116;-77
2022/05/10 05:45:09;;;;;;;8.98;3.33;;;18.60;95.80;;;17.92;47.43;101809.63;4930974;28;20045;-77
2022/05/10 05:47:35;;;;;;;9.60;3.50;;;18.60;95.90;;;18.36;46.26;101802.53;4926240;28;20071;-77
2022/05/10 05:50:01;;;;;;;11.20;3.35;;;18.50;96.60;;;18.77;46.22;101804.41;4912636;28;20374;-76
2022/05/10 05:52:27;;;;;;;9.35;3.40;;;18.90;95.50;;;19.72;44.21;101811.53;4924493;28;20112;-77
2022/05/10 05:54:53;;;;;;;10.27;3.40;;;19.30;95.50;;;20.65;42.64;101814.84;4926640;28;20032;-77
2022/05/10 05:57:20;;;;;;;10.48;3.40;;;19.70;94.70;;;20.57;42.23;101814.53;4921575;28;20127;-77
2022/05/10 05:59:47;;;;;;;7.03;3.63;;;19.80;94.90;;;20.51;42.51;101822.09;4912849;28;20035;-78
2022/05/10 06:02:17;;;;;;;11.02;3.53;;;20.10;94.90;;;21.21;41.64;101825.03;4910892;28;20575;-77
2022/05/10 06:04:43;;;;;;;9.57;3.70;;;20.50;93.80;;;21.62;40.47;101837.19;4921603;28;20471;-77
2022/05/10 06:07:15;;;;;;;11.32;3.67;;;20.60;93.60;;;20.85;41.70;101833.94;4900232;28;20058;-77
2022/05/10 06:09:43;;;;;;;9.43;3.58;;;20.70;93.30;;;22.00;40.31;101841.41;4888063;28;20099;-77
2022/05/10 06:12:12;;;;;;;11.75;3.65;;;21.20;93.40;;;23.53;38.03;101841.66;4924723;28;20038;-77
2022/05/10 06:14:38;;;;;;;7.30;3.50;;;21.90;93.10;;;24.38;37.00;101842.50;4923676;28;20034;-77
2022/05/10 06:17:05;;;;;;;12.15;3.50;;;22.90;91.60;;;25.07;34.93;101847.16;4925416;28;20028;-76
2022/05/10 06:19:34;;;;;;;10.25;3.35;;;23.70;90.50;;;26.17;33.84;101843.31;4920339;28;20031;-75
2022/05/10 06:22:00;;;;;;;9.52;3.38;;;24.60;89.40;;;27.14;32.28;101847.44;4913491;28;20031;-74
2022/05/10 06:24:26;;;;;;;9.65;2.95;;;25.50;89.60;;;27.61;31.88;101839.97;4909372;28;20102;-75
2022/05/10 06:26:54;;;;;;;7.88;3.63;;;26.10;83.20;;;27.89;30.98;101847.16;4877500;28;20078;-75
2022/05/10 06:29:20;;;;;;;8.50;3.53;;;26.60;81.40;;;27.75;30.71;101848.50;4905219;28;20116;-76
2022/05/10 06:31:47;;;;;;;8.75;3.33;;;26.80;83.50;;;28.22;30.67;101845.50;4921741;28;20062;-75
2022/05/10 06:34:14;;;;;;;12.63;3.20;;;27.10;80.00;;;28.40;30.35;101840.88;4895581;28;20150;-75
2022/05/10 06:36:40;;;;;;;9.43;2.90;;;27.30;79.30;;;28.54;29.58;101844.00;4925592;28;20174;-75
2022/05/10 06:39:08;;;;;;;6.10;3.33;;;27.70;79.50;;;29.05;29.42;101839.44;4908111;28;20031;-75
2022/05/10 06:41:34;;;;;;;8.65;3.05;;;28.00;76.40;;;28.89;28.97;101850.22;4893726;28;20132;-75
2022/05/10 06:44:01;;;;;;;8.88;3.30;;;28.20;73.80;;;28.90;28.96;101841.94;4907929;28;20125;-75
2022/05/10 06:46:29;;;;;;;13.57;3.30;;;28.20;76.80;;;29.21;29.19;101844.06;4883221;28;20608;-75
2022/05/10 06:48:55;;;;;;;12.23;3.13;;;28.60;76.00;;;29.84;28.23;101850.72;4901989;28;20036;-75
2022/05/10 06:51:23;;;;;;;14.43;3.33;;;29.00;74.60;;;30.34;27.42;101848.75;4893503;28;20042;-75
2022/05/10 06:53:49;;;;;;;9.27;3.15;;;29.50;74.80;;;31.16;27.04;101849.22;4907565;28;20028;-75
2022/05/10 06:56:16;;;;;;;6.95;2.92;;;30.30;71.00;;;31.65;26.50;101845.31;4926519;28;20051;-75
2022/05/10 06:58:42;;;;;;;15.95;3.35;;;30.70;69.20;;;31.05;26.73;101850.50;4887445;28;20032;-75
2022/05/10 07:01:12;;;;;;;17.02;3.03;;;30.70;69.60;;;31.05;26.84;101839.63;4918573;28;20046;-75
2022/05/10 07:03:44;;;;;;;7.22;2.85;;;30.80;69.10;;;30.61;26.88;101842.91;4911811;28;20119;-75
2022/05/10 07:06:14;;;;;;;8.45;3.30;;;30.40;71.00;;;29.82;28.06;101844.59;4919678;28;20019;-76
2022/05/10 07:08:40;;;;;;;16.48;3.10;;;29.80;69.00;;;29.02;28.44;101835.16;4889440;29;20032;-75
2022/05/10 07:11:06;;;;;;;10.25;3.20;;;29.70;71.90;;;28.98;29.10;101835.66;4930531;28;20032;-75
2022/05/10 07:13:33;;;;;;;8.70;3.22;;;29.20;71.10;;;29.41;28.75;101840.00;4932152;28;20442;-74
2022/05/10 07:16:02;;;;;;;12.43;3.50;;;29.50;70.90;;;30.22;28.09;101837.41;4891228;28;20583;-75
2022/05/10 07:18:28;;;;;;;10.23;3.00;;;29.90;69.80;;;30.42;27.72;101846.03;4885673;28;20110;-75
2022/05/10 07:20:54;;;;;;;8.77;3.40;;;30.50;70.90;;;31.16;26.89;101843.78;4923492;28;20464;-75
2022/05/10 07:23:30;;;;;;;7.10;3.22;;;31.00;70.00;;;31.74;26.64;101848.81;4921822;28;20031;-75
2022/05/10 07:25:57;;;;;;;;;;;31.40;69.80;;;31.95;25.47;101848.97;4881053;28;20462;-75
2022/05/10 07:28:23;;;;;;;4.20;2.55;;;31.70;69.00;;;31.64;26.83;101843.63;4919762;28;19945;-75
2022/05/10 07:30:49;;;;;;;8.20;3.33;;;31.80;70.80;;;32.08;26.67;101845.63;4877360;28;21190;-75
2022/05/10 07:33:20;;;;;;;11.85;3.42;;;32.00;69.10;;;32.08;26.58;101842.91;4906617;28;20050;-75
2022/05/10 07:38:31;;;;;;;8.65;3.10;;;32.50;68.20;;;32.53;26.31;101837.44;4911361;28;20054;-74
2022/05/10 07:40:57;;;;;;;6.82;2.90;;;32.50;68.00;;;32.47;26.11;101831.69;4933021;28;20086;-74
2022/05/10 07:43:23;;;;;;;9.07;3.30;;;32.20;65.50;;;31.43;26.85;101838.88;4923953;28;20035;-75
2022/05/10 07:45:51;;;;;;;9.73;3.50;;;31.90;65.90;;;31.24;26.65;101834.75;4931569;28;20043;-75
2022/05/10 07:48:17;;;;;;;7.82;2.90;;;31.80;67.90;;;31.39;27.23;101830.19;4935965;28;20032;-75
2022/05/10 07:50:44;;;;;;;6.93;3.17;;;31.60;68.50;;;31.37;27.19;101828.69;4900896;29;20042;-75
2022/05/10 07:53:12;;;;;;;13.60;2.95;;;31.40;67.20;;;31.16;27.46;101824.75;4920299;28;20046;-75
2022/05/10 07:55:38;;;;;;;6.22;2.95;;;31.40;67.60;;;30.95;27.18;101824.56;4909890;28;20130;-76
2022/05/10 07:58:05;;;;;;;10.40;3.22;;;31.30;67.00;;;30.94;27.01;101814.72;4925004;28;20036;-75
2022/05/10 08:00:39;;;;;;;8.50;2.80;;;31.10;67.90;;;31.02;26.91;101817.38;4889802;28;20430;-77
2022/05/10 08:03:17;;;;;;;10.18;3.10;;;31.10;67.90;;;31.07;27.58;101809.53;4928459;28;20042;-75
2022/05/10 08:05:43;;;;;;;15.10;3.20;;;31.20;67.80;;;31.27;26.98;101810.75;4949479;28;20062;-75
2022/05/10 08:08:11;;;;;;;11.77;3.35;;;31.30;67.60;;;31.40;27.01;101809.25;4909768;29;20523;-76
2022/05/10 08:10:41;;;;;;;8.18;3.08;;;31.40;67.70;;;31.45;26.97;101807.72;4905889;28;20046;-76
2022/05/10 08:13:14;;;;;;;7.05;3.25;;;31.40;66.60;;;31.40;27.00;101807.38;4898853;28;20039;-75
2022/05/10 08:15:40;;;;;;;8.02;2.90;;;31.00;66.20;;;30.54;27.51;101803.00;4919186;28;20019;-75
2022/05/10 08:18:07;;;;;;;8.13;2.97;;;30.60;66.00;;;29.91;27.75;101797.41;4977553;23;20043;-73
2022/05/10 08:20:33;;;;;;;9.32;2.80;;;30.20;66.60;;;29.47;28.26;101792.34;4963134;28;20024;-74
2022/05/10 08:22:59;;;;;;;9.60;2.78;;;30.00;70.50;;;29.69;29.27;101787.25;4947413;28;20094;-74
2022/05/10 08:25:25;;;;;;;6.82;2.75;;;29.80;69.20;;;29.48;29.52;101787.78;4944735;28;20122;-74
2022/05/10 08:27:51;;;;;;;7.82;2.83;;;29.60;69.90;;;29.58;29.45;101780.31;4949976;28;20027;-74
2022/05/10 08:30:17;;;;;;;8.18;2.90;;;29.50;69.60;;;29.32;29.69;101772.34;4931588;28;20047;-74
2022/05/10 08:32:43;;;;;;;7.85;2.83;;;29.40;68.00;;;28.95;29.35;101770.94;4953421;28;20020;-74
2022/05/10 08:35:10;;;;;;;7.97;2.83;;;29.30;71.50;;;29.02;29.75;101753.00;4948108;28;20031;-74
2022/05/10 08:37:37;;;;;;;11.48;3.08;;;29.10;70.10;;;28.59;30.60;101753.06;4930752;28;20036;-74
2022/05/10 08:40:25;;;;;;;11.30;3.38;;;28.90;70.30;;;28.25;30.02;101758.53;4922343;28;20020;-74
2022/05/10 08:42:54;;;;;;;11.30;3.30;;;28.50;70.40;;;27.79;31.32;101749.78;4954248;28;20066;-74
2022/05/10 08:45:22;;;;;;;12.85;3.00;;;28.30;72.40;;;27.73;32.59;101736.88;4946951;28;20027;-74
2022/05/10 08:47:48;;;;;;;8.38;2.80;;;27.90;74.00;;;27.25;33.45;101730.13;4949361;28;20515;-75
2022/05/10 08:50:16;;;;;;;10.18;3.05;;;27.90;74.60;;;27.50;33.18;101736.59;4956839;28;20024;-74
2022/05/10 08:52:45;;;;;;;6.75;2.72;;;27.90;74.50;;;27.52;34.00;101735.41;4929798;28;20028;-74
2022/05/10 08:55:26;;;;;;;14.10;3.10;;;27.90;75.00;;;27.59;33.14;101727.50;4961085;28;20403;-74
2022/05/10 08:58:07;;;;;;;9.63;2.97;;;27.80;75.00;;;27.51;33.46;101717.47;4933226;28;20582;-75
2022/05/10 09:00:47;;;;;;;9.63;3.08;;;27.80;71.00;;;27.21;32.84;101707.91;4955126;28;24993;-75
2022/05/10 09:04:01;;;;;;;15.77;2.83;;;27.80;73.30;;;27.25;32.50;101708.50;4943278;28;20075;-74
2022/05/10 09:06:53;;;;;;;8.43;2.95;;;27.70;73.60;;;27.49;32.91;101700.56;4924465;28;20575;-74
2022/05/10 09:09:42;;;;;;;10.63;2.70;;;27.90;75.70;;;27.61;32.89;101693.03;4949404;28;20812;-74
2022/05/10 09:12:23;;;;;;;12.70;3.20;;;28.00;74.40;;;27.66;33.35;101684.44;4955493;28;20633;-74
2022/05/10 09:15:00;;;;;;;11.05;2.75;;;28.00;73.40;;;27.57;32.87;101680.84;4955377;28;20533;-75
2022/05/10 09:17:33;;;;;;;10.52;2.63;;;28.00;75.30;;;27.69;33.66;101668.75;4954246;28;20539;-74
2022/05/10 09:20:03;;;;;;;10.75;2.88;;;28.10;73.70;;;27.64;33.43;101667.50;4938197;28;20369;-74
2022/05/10 09:22:48;;;;;;;8.93;3.10;;;28.10;75.80;;;27.63;33.70;101646.91;4928672;28;20242;-74
2022/05/10 09:25:37;;;;;;;14.32;2.72;;;27.90;74.20;;;27.37;32.61;101647.75;4928178;28;20031;-75
2022/05/10 09:28:34;;;;;;;10.32;2.55;;;27.90;73.00;;;27.31;32.79;101649.22;4929414;28;20077;-74
2022/05/10 09:37:42;;;;;;;11.20;2.80;;;28.00;74.30;;;27.48;32.96;101625.84;4925022;28;20083;-74
2022/05/10 09:40:20;;;;;;;5.07;2.33;;;28.00;74.30;;;27.59;33.76;101620.16;4952445;28;20436;-75
2022/05/10 09:42:51;;;;;;;6.40;2.30;;;28.10;74.90;;;27.72;33.89;101613.44;4930359;28;20043;-74
2022/05/10 09:45:27;;;;;;;7.40;2.70;;;28.20;75.40;;;27.88;33.61;101601.88;4936820;28;20155;-74
2022/05/10 09:48:09;;;;;;;7.78;2.40;;;28.30;75.20;;;27.95;33.32;101601.06;4931521;28;20028;-74
2022/05/10 09:50:49;;;;;;;7.88;2.63;;;28.30;73.50;;;27.89;32.97;101604.41;4931959;28;20047;-75
2022/05/10 09:53:33;;;;;;;6.95;2.00;;;28.30;73.10;;;27.88;33.08;101602.69;4952376;28;20520;-74
2022/05/10 09:56:32;;;;;;;6.57;2.65;;;28.30;74.40;;;28.06;32.92;101589.06;4955651;28;20041;-75
2022/05/10 09:59:24;;;;;;;10.45;3.08;;;28.40;74.70;;;27.97;33.01;101577.38;4928713;28;20119;-74
2022/05/10 10:01:58;;;;;;;12.07;2.30;;;28.40;74.70;;;28.12;33.22;101577.59;4934556;28;20047;-75
2022/05/10 10:04:45;;;;;;;12.00;2.55;;;28.40;72.10;;;28.02;32.17;101577.72;4952325;28;20032;-75
2022/05/10 10:07:26;;;;;;;5.22;2.30;;;28.30;73.40;;;27.85;33.03;101575.97;4928639;28;20062;-75
2022/05/10 10:10:21;;;;;;;8.98;2.58;;;28.30;73.60;;;27.97;33.36;101569.25;4954012;28;20044;-75
2022/05/10 10:12:53;;;;;;;11.05;2.53;;;28.30;73.50;;;28.06;33.05;101566.59;4951695;28;20507;-74
2022/05/10 10:15:43;;;;;;;12.77;2.53;;;28.40;74.50;;;28.17;32.32;101564.38;4945497;28;22275;-74
2022/05/10 10:18:52;;;;;;;8.07;2.38;;;28.50;73.40;;;28.22;32.49;101555.75;4926050;28;20122;-75
2022/05/10 10:22:15;;;;;;;7.55;2.25;;;28.50;73.30;;;28.12;31.38;101555.06;4943238;28;20479;-74
2022/05/10 10:25:08;;;;;;;12.55;2.40;;;28.50;73.20;;;28.28;32.30;101551.53;4871076;29;20543;-75
2022/05/10 10:27:54;;;;;;;9.00;2.38;;;28.60;72.60;;;28.26;32.17;101553.56;4936968;28;20039;-75
2022/05/10 10:30:29;;;;;;;7.03;2.20;;;28.50;73.40;;;28.06;32.23;101542.22;4942249;28;20184;-75
2022/05/10 10:33:49;;;;;;;7.27;2.10;;;28.50;72.80;;;28.02;32.47;101534.41;4953634;28;20037;-75
2022/05/10 10:36:37;;;;;;;4.22;2.08;;;28.40;73.20;;;28.04;32.97;101533.41;4950219;28;20047;-74
2022/05/10 10:39:44;;;;;;;9.43;2.10;;;28.30;73.60;;;27.77;33.00;101528.06;4943245;28;20027;-75
2022/05/10 10:42:39;;;;;;;8.05;2.35;;;28.20;74.40;;;27.81;33.07;101520.47;4927898;28;20031;-74
2022/05/10 10:45:16;;;;;;;11.18;2.38;;;28.20;73.80;;;27.93;32.67;101519.19;4928898;28;20513;-75
2022/05/10 10:48:06;;;;;;;7.75;2.30;;;28.20;74.00;;;27.83;33.17;101511.16;4925460;28;20590;-74
2022/05/10 10:50:35;;;;;;;10.98;2.40;;;28.20;73.60;;;27.72;33.16;101499.81;4927148;28;20051;-75
2022/05/10 10:53:12;;;;;;;9.68;2.30;;;28.20;74.10;;;27.86;32.62;101493.78;4941032;28;20516;-74
2022/05/10 10:55:50;;;;;;;12.25;2.15;;;28.20;73.90;;;27.87;32.81;101498.19;4951497;28;20091;-75
2022/05/10 10:58:52;;;;;;;5.68;1.95;;;28.30;74.30;;;28.09;32.44;101493.16;4931838;28;20057;-75
2022/05/10 11:02:19;;;;;;;8.48;2.47;;;28.50;73.00;;;28.41;32.05;101490.44;4927062;28;20039;-74